Time;durP1;ratioP1;P1;durP2;ratioP2;P2;SDS_P1;SDS_P2;PMS_P1;PMS_P2;Temp;Humidity;BMP_temperature;BMP_pressure;BME280_temperature;BME280_humidity;BME280_pressure;Samples;Min_cycle;Max_cycle;Signal;HPM_P1;HPM_P2
2023/09/15 00:02:28;;;;;;;9.45;8.75;;;10.80;99.90;;;;;;4994895;28;20027;-58
2023/09/15 00:04:53;;;;;;;10.45;9.50;;;10.80;99.90;;;;;;4988963;28;20029;-58
2023/09/15 00:07:20;;;;;;;10.80;9.95;;;10.80;99.90;;;;;;5006068;28;20034;-57
2023/09/15 00:09:45;;;;;;;10.57;9.77;;;10.70;99.90;;;;;;4990180;28;20030;-58
2023/09/15 00:12:11;;;;;;;10.27;9.40;;;10.70;99.90;;;;;;4997400;28;20044;-58
2023/09/15 00:14:38;;;;;;;9.88;9.18;;;10.70;99.90;;;;;;4994600;28;21401;-58
2023/09/15 00:17:03;;;;;;;10.27;9.38;;;10.70;99.90;;;;;;4987732;28;20036;-58
2023/09/15 00:19:29;;;;;;;9.95;9.25;;;10.70;99.90;;;;;;4995361;28;20019;-59
2023/09/15 00:21:55;;;;;;;10.35;9.55;;;10.60;99.90;;;;;;4988627;28;20743;-58
2023/09/15 00:24:21;;;;;;;10.13;9.43;;;10.60;99.90;;;;;;4996500;28;20105;-59
2023/09/15 00:26:48;;;;;;;9.38;8.75;;;10.60;99.90;;;;;;4996997;28;20023;-58
2023/09/15 00:29:14;;;;;;;9.85;8.95;;;10.50;99.90;;;;;;4991094;28;20018;-58
2023/09/15 00:31:40;;;;;;;9.48;8.88;;;10.50;99.90;;;;;;4996855;28;20018;-58
2023/09/15 00:34:06;;;;;;;9.18;8.38;;;10.40;99.90;;;;;;4989010;28;20027;-58
2023/09/15 00:36:32;;;;;;;9.38;8.68;;;10.40;99.90;;;;;;4992397;28;20038;-59
2023/09/15 00:38:58;;;;;;;7.95;7.35;;;10.30;99.90;;;;;;4995467;28;20034;-58
2023/09/15 00:41:24;;;;;;;8.45;7.85;;;10.20;99.90;;;;;;4990248;28;20053;-58
2023/09/15 00:43:51;;;;;;;8.55;7.95;;;10.20;99.90;;;;;;4990402;28;20091;-58
2023/09/15 00:46:17;;;;;;;7.43;6.93;;;10.10;99.90;;;;;;4992167;28;20031;-58
2023/09/15 00:48:45;;;;;;;7.53;7.03;;;10.10;99.90;;;;;;4983324;28;20038;-57
2023/09/15 00:51:12;;;;;;;8.57;7.95;;;10.10;99.90;;;;;;4986773;28;20027;-58
2023/09/15 00:53:39;;;;;;;9.60;8.90;;;10.10;99.90;;;;;;4993380;28;20022;-57
2023/09/15 00:56:06;;;;;;;9.95;9.25;;;10.10;99.90;;;;;;4990474;28;20387;-57
2023/09/15 00:58:31;;;;;;;10.82;9.93;;;10.10;99.90;;;;;;4988247;28;20413;-57
2023/09/15 01:00:58;;;;;;;10.77;10.02;;;10.10;99.90;;;;;;4990980;28;20041;-58
2023/09/15 01:03:26;;;;;;;9.55;8.85;;;10.10;99.90;;;;;;5005037;28;20034;-58
2023/09/15 01:05:52;;;;;;;10.68;9.80;;;10.10;99.90;;;;;;4987199;28;20026;-58
2023/09/15 01:08:17;;;;;;;9.45;8.85;;;10.10;99.90;;;;;;4988994;28;20026;-58
2023/09/15 01:10:43;;;;;;;9.80;8.98;;;10.10;99.90;;;;;;4986241;28;20019;-60
2023/09/15 01:13:09;;;;;;;9.18;8.38;;;10.10;99.90;;;;;;4986754;28;20456;-62
2023/09/15 01:16:06;;;;;;;8.98;8.18;;;10.10;99.90;;;;;;4988802;28;20042;-59
2023/09/15 01:18:35;;;;;;;1088.20;91.88;;;10.00;99.90;;;;;;4992905;28;20433;-60
2023/09/15 01:21:07;;;;;;;6.00;5.60;;;10.00;99.90;;;;;;4998316;28;20458;-61
2023/09/15 01:24:03;;;;;;;5.45;5.05;;;9.90;99.90;;;;;;4988592;28;20027;-61
2023/09/15 01:26:47;;;;;;;4.45;4.15;;;9.90;99.90;;;;;;4988989;28;20030;-59
2023/09/15 01:29:50;;;;;;;4.55;4.25;;;9.80;99.90;;;;;;4986211;28;20026;-60
2023/09/15 01:32:18;;;;;;;5.55;5.15;;;9.80;99.90;;;;;;4987642;28;20026;-60
2023/09/15 01:34:50;;;;;;;6.32;5.82;;;9.70;99.90;;;;;;4990303;28;20033;-60
2023/09/15 01:37:16;;;;;;;7.30;6.60;;;9.70;99.90;;;;;;4987768;28;20053;-60
2023/09/15 01:39:42;;;;;;;7.25;6.65;;;9.70;99.90;;;;;;4988508;28;20027;-59
2023/09/15 01:42:08;;;;;;;7.93;7.32;;;9.70;99.90;;;;;;4989195;28;20497;-59
2023/09/15 01:44:33;;;;;;;7.03;6.32;;;9.70;99.90;;;;;;4986701;28;20038;-60
2023/09/15 01:46:59;;;;;;;6.47;5.97;;;9.60;99.90;;;;;;4986461;28;20034;-60
2023/09/15 01:49:26;;;;;;;6.07;5.68;;;9.70;99.90;;;;;;4991401;28;20581;-60
2023/09/15 01:51:53;;;;;;;6.70;6.20;;;9.60;99.90;;;;;;4987286;28;20394;-60
2023/09/15 01:54:19;;;;;;;5.93;5.53;;;9.60;99.90;;;;;;4988482;28;20029;-60
2023/09/15 01:56:45;;;;;;;5.45;5.15;;;9.60;99.90;;;;;;4990138;28;20033;-61
2023/09/15 01:59:12;;;;;;;6.05;5.65;;;9.60;99.90;;;;;;4988177;28;20036;-61
2023/09/15 02:01:38;;;;;;;6.18;5.72;;;9.60;99.90;;;;;;4990172;28;20018;-60
2023/09/15 02:04:04;;;;;;;5.72;5.32;;;9.50;99.90;;;;;;4993182;28;20036;-60
2023/09/15 02:06:30;;;;;;;6.72;6.22;;;9.50;99.90;;;;;;4989608;28;20089;-60
2023/09/15 02:08:56;;;;;;;6.10;5.60;;;9.50;99.90;;;;;;4983650;28;20026;-61
2023/09/15 02:11:22;;;;;;;6.22;5.75;;;9.40;99.90;;;;;;4976501;28;20078;-61
2023/09/15 02:13:48;;;;;;;5.68;5.28;;;9.40;99.90;;;;;;4989744;28;20469;-60
2023/09/15 02:16:14;;;;;;;6.15;5.65;;;9.30;99.90;;;;;;4987290;28;20108;-60
2023/09/15 02:18:40;;;;;;;6.05;5.55;;;9.20;99.90;;;;;;4984530;28;20086;-59
2023/09/15 02:21:06;;;;;;;7.25;5.70;;;9.20;99.90;;;;;;4994452;28;20035;-60
2023/09/15 02:23:32;;;;;;;6.32;5.82;;;9.20;99.90;;;;;;4987952;28;20018;-60
2023/09/15 02:26:02;;;;;;;6.32;5.88;;;9.20;99.90;;;;;;4995940;28;20026;-61
2023/09/15 02:28:28;;;;;;;6.40;6.00;;;9.10;99.90;;;;;;4980440;28;20031;-60
2023/09/15 02:30:55;;;;;;;6.03;5.63;;;9.10;99.90;;;;;;4994420;28;20108;-60
2023/09/15 02:33:22;;;;;;;6.18;5.68;;;9.10;99.90;;;;;;4988067;28;20031;-60
2023/09/15 02:35:48;;;;;;;6.15;5.75;;;9.00;99.90;;;;;;4986999;28;20495;-60
2023/09/15 02:38:14;;;;;;;6.15;5.75;;;9.00;99.90;;;;;;4988297;28;20035;-60
2023/09/15 02:40:39;;;;;;;7.70;7.05;;;8.90;99.90;;;;;;4994260;28;20098;-61
2023/09/15 02:43:05;;;;;;;6.78;6.30;;;9.00;99.90;;;;;;4982760;28;20086;-60
2023/09/15 02:45:37;;;;;;;6.80;6.30;;;9.00;99.90;;;;;;4977885;28;20034;-60
2023/09/15 02:48:03;;;;;;;8.45;7.65;;;9.00;99.90;;;;;;4987717;28;20026;-61
2023/09/15 02:50:29;;;;;;;7.93;7.32;;;9.00;99.90;;;;;;4988084;28;20027;-60
2023/09/15 02:52:55;;;;;;;6.97;6.20;;;9.00;99.90;;;;;;4991243;28;20109;-60
2023/09/15 02:55:21;;;;;;;11.13;5.07;;;9.10;99.90;;;;;;4999117;28;20188;-61
2023/09/15 02:57:54;;;;;;;6.60;5.82;;;9.10;99.90;;;;;;4999329;28;20483;-60
2023/09/15 03:00:20;;;;;;;2.67;2.47;;;9.10;99.90;;;;;;4990998;28;20054;-59
2023/09/15 03:02:46;;;;;;;4.28;3.97;;;9.10;99.90;;;;;;4992625;28;20527;-60
2023/09/15 03:05:13;;;;;;;1999.90;999.90;;;9.10;99.90;;;;;;5003809;28;20038;-61
2023/09/15 03:07:39;;;;;;;7.28;6.90;;;9.10;99.90;;;;;;4993779;28;20114;-60
2023/09/15 03:10:09;;;;;;;537.95;277.15;;;9.10;99.90;;;;;;4981308;28;20046;-60
2023/09/15 03:12:36;;;;;;;142.80;20.42;;;9.00;99.90;;;;;;4988583;28;20046;-61
2023/09/15 03:15:06;;;;;;;6.15;5.55;;;8.90;99.90;;;;;;4993734;28;20164;-60
2023/09/15 03:17:39;;;;;;;125.63;53.87;;;8.90;99.90;;;;;;4986873;28;20030;-61
2023/09/15 03:20:13;;;;;;;141.40;46.45;;;8.90;99.90;;;;;;4988936;28;20252;-61
2023/09/15 03:22:43;;;;;;;588.90;91.35;;;8.90;99.90;;;;;;4990648;28;20069;-61
2023/09/15 03:25:09;;;;;;;8.23;7.43;;;9.00;99.90;;;;;;4990583;28;20031;-58
2023/09/15 03:27:35;;;;;;;4.70;4.10;;;9.00;99.90;;;;;;4990489;28;20502;-60
2023/09/15 03:30:01;;;;;;;5.10;4.40;;;9.00;99.90;;;;;;4990778;28;20087;-64
2023/09/15 03:32:26;;;;;;;1999.90;999.90;;;8.90;99.90;;;;;;4994956;28;20129;-60
2023/09/15 03:34:52;;;;;;;1999.90;999.90;;;8.90;99.90;;;;;;4992654;28;20124;-59
2023/09/15 03:37:18;;;;;;;1999.90;999.90;;;8.90;99.90;;;;;;4987672;28;20057;-60
2023/09/15 03:39:43;;;;;;;1999.90;999.90;;;8.90;99.90;;;;;;4995105;28;20034;-61
2023/09/15 03:42:09;;;;;;;1999.90;999.90;;;8.90;99.90;;;;;;4991646;28;20057;-60
2023/09/15 03:44:35;;;;;;;1999.90;999.90;;;8.90;99.90;;;;;;4985462;28;20085;-61
2023/09/15 03:47:00;;;;;;;1999.90;999.90;;;8.80;99.90;;;;;;4980099;28;20022;-60
2023/09/15 03:49:26;;;;;;;1999.90;999.90;;;8.80;99.90;;;;;;4986994;28;20376;-59
2023/09/15 03:51:52;;;;;;;1999.90;999.90;;;8.80;99.90;;;;;;4984914;28;20154;-60
2023/09/15 03:54:18;;;;;;;1999.90;999.90;;;8.80;99.90;;;;;;4984185;28;20031;-59
2023/09/15 03:56:44;;;;;;;1999.90;999.90;;;8.80;99.90;;;;;;4996340;28;20037;-60
2023/09/15 03:59:09;;;;;;;1999.90;999.90;;;8.80;99.90;;;;;;4999316;28;20027;-60
2023/09/15 04:01:35;;;;;;;1999.90;999.90;;;8.90;99.90;;;;;;4992738;28;20019;-60
2023/09/15 04:04:02;;;;;;;1999.90;999.90;;;8.80;99.90;;;;;;4990898;28;20023;-60
2023/09/15 04:06:28;;;;;;;1999.90;999.90;;;8.80;99.90;;;;;;4995397;28;20061;-60
2023/09/15 04:08:55;;;;;;;1999.90;999.90;;;8.80;99.90;;;;;;4998213;28;20058;-61
2023/09/15 04:11:21;;;;;;;1999.90;999.90;;;8.80;99.90;;;;;;4996941;28;20026;-61
2023/09/15 04:13:47;;;;;;;1999.90;999.90;;;8.80;99.90;;;;;;5014998;28;20033;-61
2023/09/15 04:16:12;;;;;;;1999.90;999.90;;;8.80;99.90;;;;;;4991185;28;20034;-60
2023/09/15 04:18:38;;;;;;;1999.90;999.90;;;8.90;99.90;;;;;;4991815;28;20037;-61
2023/09/15 04:21:04;;;;;;;1999.90;999.90;;;8.90;99.90;;;;;;4994846;28;20027;-60
2023/09/15 04:23:30;;;;;;;1999.90;999.90;;;8.90;99.90;;;;;;4994153;28;20033;-59
2023/09/15 04:25:56;;;;;;;1999.90;999.90;;;8.90;99.90;;;;;;4991568;28;20036;-61
2023/09/15 04:28:21;;;;;;;1999.90;999.90;;;8.80;99.90;;;;;;4990192;28;20046;-60
2023/09/15 04:30:48;;;;;;;1999.90;999.90;;;8.80;99.90;;;;;;4994851;28;20557;-60
2023/09/15 04:33:14;;;;;;;1999.90;999.90;;;8.80;99.90;;;;;;4992019;28;20851;-60
2023/09/15 04:35:39;;;;;;;1999.90;999.90;;;8.70;99.90;;;;;;4989447;28;20043;-59
2023/09/15 04:38:06;;;;;;;1999.90;999.90;;;8.70;99.90;;;;;;4991004;28;20037;-59
2023/09/15 04:40:31;;;;;;;1999.90;999.90;;;8.70;99.90;;;;;;4990016;28;20081;-59
2023/09/15 04:42:59;;;;;;;1999.90;999.90;;;8.60;99.90;;;;;;4986110;28;20604;-60
2023/09/15 04:45:25;;;;;;;1999.90;999.90;;;8.60;99.90;;;;;;4988994;28;20035;-59
2023/09/15 04:47:51;;;;;;;1999.90;999.90;;;8.60;99.90;;;;;;4988399;28;20027;-59
2023/09/15 04:50:16;;;;;;;1999.90;999.90;;;8.70;99.90;;;;;;4981684;28;20074;-60
2023/09/15 04:52:42;;;;;;;1999.90;999.90;;;8.70;99.90;;;;;;4994321;28;20115;-61
2023/09/15 04:55:08;;;;;;;1999.90;999.90;;;8.70;99.90;;;;;;4984051;28;20034;-60
2023/09/15 04:57:34;;;;;;;1999.90;999.90;;;8.70;99.90;;;;;;4996581;28;20068;-60
2023/09/15 05:00:01;;;;;;;1999.90;999.90;;;8.70;99.90;;;;;;4999182;28;20049;-60
2023/09/15 05:02:30;;;;;;;1999.90;999.90;;;8.60;99.90;;;;;;4986837;28;20027;-60
2023/09/15 05:04:56;;;;;;;1999.90;999.90;;;8.60;99.90;;;;;;4985187;28;20033;-59
2023/09/15 05:07:21;;;;;;;1999.90;999.90;;;8.60;99.90;;;;;;4988439;28;20035;-61
2023/09/15 05:09:47;;;;;;;1999.90;999.90;;;8.60;99.90;;;;;;4988774;28;20069;-61
2023/09/15 05:12:15;;;;;;;1999.90;999.90;;;8.60;99.90;;;;;;4991244;28;20035;-61
2023/09/15 05:14:41;;;;;;;1999.90;999.90;;;8.60;99.90;;;;;;4983163;28;20113;-60
2023/09/15 05:17:07;;;;;;;1999.90;999.90;;;8.60;99.90;;;;;;4986860;28;20105;-60
2023/09/15 05:19:32;;;;;;;1999.90;999.90;;;8.60;99.90;;;;;;4984608;28;20482;-60
2023/09/15 05:21:58;;;;;;;1999.90;999.90;;;8.70;99.90;;;;;;4979311;28;20495;-61
2023/09/15 05:24:24;;;;;;;1999.90;999.90;;;8.70;99.90;;;;;;4992434;28;20077;-59
2023/09/15 05:26:49;;;;;;;1999.90;999.90;;;8.70;99.90;;;;;;4987647;28;20411;-61
2023/09/15 05:29:15;;;;;;;1999.90;999.90;;;8.80;99.90;;;;;;4979993;28;20054;-60
2023/09/15 05:31:41;;;;;;;1999.90;999.90;;;8.80;99.90;;;;;;4985555;28;20010;-61
2023/09/15 05:34:08;;;;;;;1999.90;999.90;;;8.80;99.90;;;;;;4992247;28;20023;-60
2023/09/15 05:36:33;;;;;;;1999.90;999.90;;;8.90;99.90;;;;;;4990626;28;20509;-60
2023/09/15 05:38:59;;;;;;;1999.90;999.90;;;8.90;99.90;;;;;;4989500;28;20035;-60
2023/09/15 05:41:25;;;;;;;1999.90;999.90;;;8.90;99.90;;;;;;4989352;28;20134;-61
2023/09/15 05:43:50;;;;;;;1999.90;999.90;;;9.00;99.90;;;;;;4986341;28;20115;-60
2023/09/15 05:46:16;;;;;;;1999.90;999.90;;;9.00;99.90;;;;;;4989437;28;20713;-61
2023/09/15 05:48:41;;;;;;;1999.90;999.90;;;9.00;99.90;;;;;;4993025;28;20053;-61
2023/09/15 05:51:07;;;;;;;1999.90;999.90;;;9.10;99.90;;;;;;4996876;28;20060;-60
2023/09/15 05:53:33;;;;;;;1999.90;999.90;;;9.20;99.90;;;;;;4989840;28;20508;-60
2023/09/15 05:55:59;;;;;;;1999.90;999.90;;;9.30;99.90;;;;;;4987839;28;20034;-61
2023/09/15 05:58:24;;;;;;;1999.90;999.90;;;9.50;99.90;;;;;;4994243;28;20024;-61
2023/09/15 06:00:54;;;;;;;1999.90;999.90;;;9.60;99.90;;;;;;4987096;28;20117;-60
2023/09/15 06:03:20;;;;;;;1999.90;999.90;;;9.70;99.90;;;;;;4992458;28;20027;-61
2023/09/15 06:05:45;;;;;;;1999.90;999.90;;;9.80;99.90;;;;;;4986436;28;20038;-60
2023/09/15 06:08:11;;;;;;;1999.90;999.90;;;9.90;99.90;;;;;;4988562;28;20081;-61
2023/09/15 06:10:39;;;;;;;1999.90;999.90;;;10.00;99.90;;;;;;4987834;28;20019;-61
2023/09/15 06:13:06;;;;;;;1999.90;999.90;;;10.10;99.90;;;;;;4984060;28;20109;-60
2023/09/15 06:15:33;;;;;;;1999.90;999.90;;;10.10;99.90;;;;;;4985351;28;20038;-61
2023/09/15 06:18:01;;;;;;;1999.90;999.90;;;10.10;99.90;;;;;;4987252;28;20027;-60
2023/09/15 06:20:30;;;;;;;1999.90;999.90;;;10.10;99.90;;;;;;4985928;28;20029;-60
2023/09/15 06:22:56;;;;;;;1999.90;999.90;;;10.20;99.90;;;;;;4985455;28;20018;-60
2023/09/15 06:25:22;;;;;;;1999.90;999.90;;;10.20;99.90;;;;;;4985780;28;20030;-62
2023/09/15 06:27:47;;;;;;;1999.90;999.90;;;10.30;99.90;;;;;;4995558;28;20060;-61
2023/09/15 06:30:13;;;;;;;1999.90;999.90;;;10.40;99.90;;;;;;4991756;28;20137;-61
2023/09/15 06:32:39;;;;;;;1999.90;999.90;;;10.40;99.90;;;;;;4993245;28;20581;-61
2023/09/15 06:35:05;;;;;;;1999.90;999.90;;;10.50;99.90;;;;;;4989399;28;20064;-61
2023/09/15 06:37:31;;;;;;;1999.90;999.90;;;10.60;99.90;;;;;;4989551;28;20022;-61
2023/09/15 06:39:57;;;;;;;1999.90;999.90;;;10.70;99.90;;;;;;4986066;28;20089;-60
2023/09/15 06:42:22;;;;;;;32.58;31.67;;;10.80;99.90;;;;;;4980694;28;20038;-61
2023/09/15 06:44:48;;;;;;;1999.90;999.90;;;10.90;99.90;;;;;;4983638;28;20501;-60
2023/09/15 06:47:13;;;;;;;1999.90;999.90;;;11.00;99.90;;;;;;4992024;28;20026;-61
2023/09/15 06:49:39;;;;;;;1999.90;999.90;;;11.10;99.90;;;;;;4985811;28;20022;-61
2023/09/15 06:52:06;;;;;;;1999.90;999.90;;;11.20;99.90;;;;;;4988939;28;20529;-60
2023/09/15 06:54:31;;;;;;;1999.90;999.90;;;11.30;99.90;;;;;;4986675;28;20118;-61
2023/09/15 06:56:57;;;;;;;1999.90;999.90;;;11.40;99.90;;;;;;4986741;28;20470;-60
2023/09/15 06:59:23;;;;;;;954.08;594.05;;;11.50;99.90;;;;;;4990458;28;20033;-61
2023/09/15 07:01:48;;;;;;;3.00;2.90;;;11.70;99.90;;;;;;4988095;28;20433;-61
2023/09/15 07:04:14;;;;;;;1.40;1.40;;;11.90;99.90;;;;;;4991396;28;20022;-61
2023/09/15 07:06:40;;;;;;;5.70;5.40;;;12.00;99.90;;;;;;4986866;28;20734;-62
2023/09/15 07:09:06;;;;;;;3.28;3.17;;;12.10;99.90;;;;;;4987579;28;20986;-61
2023/09/15 07:11:32;;;;;;;0.80;0.80;;;12.20;99.90;;;;;;4990389;28;20133;-61
2023/09/15 07:13:57;;;;;;;11.25;10.95;;;12.30;99.90;;;;;;4993579;28;20377;-61
2023/09/15 07:16:23;;;;;;;6.38;6.07;;;12.40;99.90;;;;;;4992643;28;20608;-60
2023/09/15 07:18:48;;;;;;;5.22;5.03;;;12.60;99.90;;;;;;4996762;28;20667;-61
2023/09/15 07:21:14;;;;;;;8.45;6.50;;;12.70;99.90;;;;;;4996089;28;20102;-60
2023/09/15 07:23:40;;;;;;;1.20;1.20;;;12.80;99.90;;;;;;5001345;28;20022;-61
2023/09/15 07:26:06;;;;;;;1.20;1.20;;;13.00;99.90;;;;;;5000282;28;20034;-61
2023/09/15 07:28:31;;;;;;;1.10;1.10;;;13.10;99.90;;;;;;4999321;28;20022;-60
2023/09/15 07:31:04;;;;;;;20.38;18.52;;;13.20;99.90;;;;;;4987083;28;20037;-60
2023/09/15 07:33:30;;;;;;;15.25;14.02;;;13.30;99.90;;;;;;4992003;28;20033;-62
2023/09/15 07:36:00;;;;;;;65.35;25.42;;;13.40;99.90;;;;;;4999493;28;20041;-62
2023/09/15 07:38:26;;;;;;;3.30;3.20;;;13.60;99.90;;;;;;4994968;28;20122;-60
2023/09/15 07:40:52;;;;;;;33.15;27.77;;;13.70;99.90;;;;;;5000727;28;20076;-60
2023/09/15 07:43:17;;;;;;;8.15;7.95;;;13.80;99.90;;;;;;4995555;28;20432;-60
2023/09/15 07:45:43;;;;;;;15.13;14.52;;;13.90;99.90;;;;;;4994541;28;20664;-61
2023/09/15 07:48:08;;;;;;;6.95;6.75;;;14.00;99.90;;;;;;4987559;28;20039;-60
2023/09/15 07:50:34;;;;;;;7.68;7.47;;;14.20;99.90;;;;;;4982843;28;20085;-60
2023/09/15 07:53:00;;;;;;;1999.90;999.90;;;14.30;99.90;;;;;;4996892;28;20037;-62
2023/09/15 07:55:25;;;;;;;1999.90;999.90;;;14.40;99.90;;;;;;5003747;28;20040;-61
2023/09/15 07:57:51;;;;;;;258.23;241.18;;;14.50;99.90;;;;;;4986352;28;20055;-62
2023/09/15 08:00:17;;;;;;;88.90;84.25;;;14.60;99.90;;;;;;4981599;28;20073;-62
2023/09/15 08:02:42;;;;;;;78.45;71.97;;;14.70;99.90;;;;;;4984667;28;20574;-61
2023/09/15 08:05:08;;;;;;;76.60;72.80;;;14.80;99.90;;;;;;4990920;28;20103;-60
2023/09/15 08:07:34;;;;;;;66.90;63.95;;;14.90;99.90;;;;;;4997672;28;20555;-60
2023/09/15 08:10:01;;;;;;;27.98;27.17;;;15.00;99.90;;;;;;4993282;28;20034;-61
2023/09/15 08:12:27;;;;;;;1999.90;999.90;;;15.10;99.90;;;;;;4983075;28;20038;-61
2023/09/15 08:14:52;;;;;;;1999.90;999.90;;;15.30;99.90;;;;;;4988817;28;20153;-60
2023/09/15 08:17:18;;;;;;;1999.90;999.90;;;15.40;99.90;;;;;;4989248;28;20114;-62
2023/09/15 08:19:44;;;;;;;1999.90;999.90;;;15.50;99.90;;;;;;4989424;28;20117;-61
2023/09/15 08:22:09;;;;;;;1999.90;999.90;;;15.70;99.90;;;;;;4987062;28;20042;-62
2023/09/15 08:24:37;;;;;;;1999.90;999.90;;;15.80;99.90;;;;;;4986282;28;20157;-61
2023/09/15 08:27:03;;;;;;;1999.90;999.90;;;16.00;99.90;;;;;;4985005;28;20018;-61
2023/09/15 08:29:29;;;;;;;1999.90;999.90;;;16.10;99.90;;;;;;4988116;28;20057;-58
2023/09/15 08:31:55;;;;;;;1999.90;999.90;;;16.20;99.90;;;;;;4992771;28;20054;-58
2023/09/15 08:34:20;;;;;;;1999.90;999.90;;;16.30;99.90;;;;;;4995434;28;20077;-60
2023/09/15 08:36:46;;;;;;;1999.90;999.90;;;16.40;99.90;;;;;;4989361;28;20034;-59
2023/09/15 08:39:12;;;;;;;1999.90;999.90;;;16.40;99.90;;;;;;4988221;28;20123;-59
2023/09/15 08:41:52;;;;;;;1999.90;999.90;;;16.50;99.90;;;;;;4989895;28;20445;-59
2023/09/15 08:44:20;;;;;;;1999.90;999.90;;;16.60;99.90;;;;;;4990974;28;20109;-58
2023/09/15 08:46:49;;;;;;;1999.90;999.90;;;16.70;99.90;;;;;;4991161;28;20409;-59
2023/09/15 08:49:16;;;;;;;1999.90;999.90;;;16.80;99.90;;;;;;4991482;28;20054;-60
2023/09/15 08:51:43;;;;;;;1999.90;999.90;;;16.90;99.90;;;;;;4995131;28;20042;-59
2023/09/15 08:54:10;;;;;;;1999.90;999.90;;;17.00;99.90;;;;;;4992449;28;20038;-58
2023/09/15 08:56:36;;;;;;;1999.90;999.90;;;17.10;99.90;;;;;;4997912;28;20034;-58
2023/09/15 08:59:03;;;;;;;1999.90;999.90;;;17.30;99.90;;;;;;4991233;28;20022;-59
2023/09/15 09:01:30;;;;;;;1999.90;999.90;;;17.40;99.90;;;;;;4985081;28;20030;-59
2023/09/15 09:03:56;;;;;;;1999.90;999.90;;;17.60;99.90;;;;;;4981270;28;20588;-59
2023/09/15 09:06:23;;;;;;;1999.90;999.90;;;17.90;99.90;;;;;;5011593;28;20065;-60
2023/09/15 09:08:49;;;;;;;1999.90;999.90;;;18.40;99.90;;;;;;4995810;28;20026;-61
2023/09/15 09:11:15;;;;;;;2.95;2.28;;;19.40;99.90;;;;;;4991732;28;20040;-60
2023/09/15 09:13:41;;;;;;;2.22;1.50;;;20.50;99.90;;;;;;4996857;28;20022;-59
2023/09/15 09:16:07;;;;;;;1.58;1.10;;;21.40;99.90;;;;;;4992922;28;20033;-59
2023/09/15 09:18:34;;;;;;;1.77;1.42;;;22.50;99.90;;;;;;4991615;28;20050;-59
2023/09/15 09:21:02;;;;;;;2.10;1.40;;;23.40;99.90;;;;;;4992629;28;20084;-60
2023/09/15 09:23:28;;;;;;;2.13;1.27;;;24.10;99.90;;;;;;4987183;28;20050;-59
2023/09/15 09:25:54;;;;;;;2.40;1.42;;;24.50;99.90;;;;;;4979491;28;20568;-60
2023/09/15 09:28:21;;;;;;;1.52;1.20;;;24.70;96.80;;;;;;4978956;28;20089;-59
2023/09/15 09:30:46;;;;;;;1.40;1.30;;;24.70;92.00;;;;;;4989104;28;20580;-60
2023/09/15 09:33:12;;;;;;;13.02;11.93;;;24.60;90.50;;;;;;4989776;28;20055;-59
2023/09/15 09:35:39;;;;;;;93.10;27.05;;;24.40;91.50;;;;;;5002793;28;20041;-59
2023/09/15 09:38:04;;;;;;;69.00;42.20;;;24.10;92.80;;;;;;4978588;28;20025;-59
2023/09/15 09:40:33;;;;;;;0.60;0.60;;;23.80;97.90;;;;;;4984767;28;20022;-58
2023/09/15 09:42:59;;;;;;;0.93;0.60;;;23.50;98.40;;;;;;4991731;28;20105;-59
2023/09/15 09:45:28;;;;;;;1.08;0.52;;;23.20;97.40;;;;;;4995557;28;20058;-58
2023/09/15 09:47:55;;;;;;;0.57;0.55;;;22.90;98.10;;;;;;4983680;28;20029;-59
2023/09/15 09:50:21;;;;;;;1.05;0.77;;;22.80;99.90;;;;;;4985624;28;20031;-59
2023/09/15 09:52:48;;;;;;;0.43;0.40;;;22.70;99.90;;;;;;4979151;28;20027;-58
2023/09/15 09:55:14;;;;;;;0.65;0.47;;;22.60;99.90;;;;;;4988840;28;20056;-59
2023/09/15 09:57:40;;;;;;;0.68;0.65;;;22.50;99.90;;;;;;4987604;28;20412;-60
2023/09/15 10:00:09;;;;;;;2.20;0.50;;;22.30;99.90;;;;;;4989262;28;20031;-59
2023/09/15 10:02:42;;;;;;;0.85;0.40;;;22.30;99.90;;;;;;4996173;28;20545;-59
2023/09/15 10:05:08;;;;;;;0.63;0.63;;;22.30;99.90;;;;;;4978875;28;20031;-59
2023/09/15 10:07:35;;;;;;;0.63;0.60;;;22.30;99.90;;;;;;4987746;28;20102;-58
2023/09/15 10:10:03;;;;;;;0.45;0.40;;;22.30;99.90;;;;;;4991268;28;20084;-60
2023/09/15 10:12:29;;;;;;;0.40;0.40;;;22.40;99.90;;;;;;4991637;28;20498;-60
2023/09/15 10:14:55;;;;;;;0.88;0.50;;;22.40;99.90;;;;;;4984779;28;20494;-58
2023/09/15 10:17:22;;;;;;;1.40;0.90;;;22.40;99.90;;;;;;4987740;28;20041;-58
2023/09/15 10:19:48;;;;;;;2.08;0.88;;;22.40;99.90;;;;;;4990136;28;20030;-57
2023/09/15 10:22:16;;;;;;;0.55;0.55;;;22.40;99.90;;;;;;4994563;28;20030;-60
2023/09/15 10:24:47;;;;;;;2.75;0.73;;;22.40;99.90;;;;;;4989805;28;20034;-59
2023/09/15 10:27:13;;;;;;;;;;;22.50;99.90;;;;;;4993951;28;20062;-59
2023/09/15 10:29:42;;;;;;;1.30;0.80;;;22.50;99.90;;;;;;4994980;28;19948;-59
2023/09/15 10:32:08;;;;;;;0.52;0.52;;;22.40;99.90;;;;;;4994010;28;20117;-59
2023/09/15 10:34:34;;;;;;;0.90;0.60;;;22.40;99.90;;;;;;4989513;28;20551;-59
2023/09/15 10:37:03;;;;;;;14.05;2.47;;;22.40;99.90;;;;;;4984264;28;20038;-58
2023/09/15 10:39:40;;;;;;;0.55;0.50;;;22.40;99.90;;;;;;4981787;28;20038;-59
2023/09/15 10:42:07;;;;;;;0.68;0.50;;;22.60;99.90;;;;;;4987297;28;20053;-59
2023/09/15 10:44:33;;;;;;;0.50;0.50;;;22.70;99.90;;;;;;4990931;28;20030;-59
2023/09/15 10:46:59;;;;;;;2.22;0.90;;;22.80;99.90;;;;;;4993120;28;20026;-59
2023/09/15 10:49:25;;;;;;;0.60;0.60;;;22.90;99.90;;;;;;4993832;28;20026;-59
2023/09/15 10:51:58;;;;;;;1.10;0.65;;;22.90;99.90;;;;;;4993980;28;20596;-58
2023/09/15 10:54:32;;;;;;;0.50;0.50;;;23.00;99.90;;;;;;4994323;28;20096;-59
2023/09/15 10:56:59;;;;;;;0.75;0.75;;;23.10;99.90;;;;;;5000149;28;20448;-60
2023/09/15 10:59:26;;;;;;;1.35;0.70;;;23.10;99.90;;;;;;4992512;28;20448;-59
2023/09/15 11:01:52;;;;;;;0.40;0.40;;;23.20;99.90;;;;;;4995105;28;20053;-57
2023/09/15 11:04:21;;;;;;;1.98;0.90;;;23.20;99.90;;;;;;4995279;28;20038;-58
2023/09/15 11:06:51;;;;;;;0.73;0.73;;;23.20;99.90;;;;;;4992254;28;20627;-57
2023/09/15 11:09:18;;;;;;;0.75;0.60;;;23.20;99.90;;;;;;4989240;28;20505;-59
2023/09/15 11:11:45;;;;;;;1.17;0.88;;;23.20;99.90;;;;;;4988715;28;20390;-60
2023/09/15 11:14:13;;;;;;;0.88;0.88;;;23.30;99.90;;;;;;4988852;28;20414;-58
2023/09/15 11:16:45;;;;;;;3.63;1.00;;;23.40;99.90;;;;;;4988164;28;20114;-59
2023/09/15 11:19:13;;;;;;;2.22;0.82;;;23.50;99.90;;;;;;4984349;28;20027;-59
2023/09/15 11:21:40;;;;;;;0.80;0.80;;;23.70;99.90;;;;;;4990995;28;20812;-59
2023/09/15 11:24:08;;;;;;;2.08;1.00;;;23.70;99.60;;;;;;4990812;28;20062;-58
2023/09/15 11:26:33;;;;;;;1.25;0.75;;;23.80;99.10;;;;;;4989112;28;20553;-58
2023/09/15 11:28:59;;;;;;;0.70;0.70;;;24.00;99.90;;;;;;4987570;28;20113;-58
2023/09/15 11:31:26;;;;;;;0.75;0.50;;;24.10;94.40;;;;;;4992089;28;20022;-59
2023/09/15 11:33:54;;;;;;;1.08;0.98;;;24.10;94.80;;;;;;4995059;28;20035;-58
2023/09/15 11:36:23;;;;;;;1.02;0.80;;;24.20;92.40;;;;;;4996469;28;20786;-59
2023/09/15 11:38:48;;;;;;;1.10;0.80;;;24.20;94.20;;;;;;4988760;28;20092;-59
2023/09/15 11:41:15;;;;;;;0.88;0.70;;;24.20;91.50;;;;;;4978830;28;20482;-59
2023/09/15 11:43:43;;;;;;;0.98;0.80;;;24.30;93.90;;;;;;4988728;28;20034;-59
2023/09/15 11:46:10;;;;;;;0.77;0.70;;;24.40;92.90;;;;;;4993170;28;20042;-59
2023/09/15 11:48:38;;;;;;;0.75;0.75;;;24.50;91.10;;;;;;4995538;28;20034;-57
2023/09/15 11:51:13;;;;;;;0.80;0.80;;;24.40;91.70;;;;;;4990605;28;20036;-60
2023/09/15 11:53:41;;;;;;;8.52;0.90;;;24.20;91.50;;;;;;4984948;28;20032;-60
2023/09/15 11:56:08;;;;;;;1.00;0.90;;;24.20;92.60;;;;;;4980897;28;20038;-58
2023/09/15 11:58:34;;;;;;;0.70;0.70;;;24.30;94.00;;;;;;4993150;28;20025;-59
2023/09/15 12:01:01;;;;;;;1.20;0.85;;;24.60;91.20;;;;;;4998557;28;20022;-59
2023/09/15 12:03:29;;;;;;;1.30;1.00;;;24.90;90.20;;;;;;4995989;28;20534;-59
2023/09/15 12:05:55;;;;;;;1.35;0.70;;;25.10;87.30;;;;;;4999732;28;20026;-59
2023/09/15 12:08:21;;;;;;;1.55;1.10;;;25.40;83.80;;;;;;4986451;28;20509;-60
2023/09/15 12:10:49;;;;;;;1.40;1.30;;;25.50;85.90;;;;;;4986935;28;20031;-59
2023/09/15 12:13:15;;;;;;;1.02;0.90;;;25.60;84.00;;;;;;4984273;28;20030;-59
2023/09/15 12:15:40;;;;;;;1.02;0.90;;;25.80;80.70;;;;;;4991934;28;20037;-58
2023/09/15 12:18:07;;;;;;;0.98;0.80;;;25.90;81.40;;;;;;4992118;28;20043;-58
2023/09/15 12:20:36;;;;;;;0.73;0.57;;;26.00;79.40;;;;;;4998974;28;20033;-59
2023/09/15 12:23:13;;;;;;;0.70;0.60;;;26.00;72.70;;;;;;5000409;28;20024;-58
2023/09/15 12:25:39;;;;;;;0.85;0.60;;;26.00;73.50;;;;;;4996436;28;20018;-59
2023/09/15 12:28:06;;;;;;;0.85;0.77;;;25.70;73.90;;;;;;4992027;28;20339;-59
2023/09/15 12:30:34;;;;;;;0.90;0.85;;;25.20;76.00;;;;;;4990442;28;20819;-59